createdAt,value
2023-03-06T00:00:50.509Z,1.92
2023-03-06T00:03:17.290Z,2.20
2023-03-06T00:05:44.109Z,2.10
2023-03-06T00:08:11.331Z,1.85
2023-03-06T00:10:38.733Z,2.10
2023-03-06T00:13:08.207Z,2.38
2023-03-06T00:15:36.044Z,2.03
2023-03-06T00:18:06.815Z,2.25
2023-03-06T00:20:34.826Z,2.03
2023-03-06T00:23:02.042Z,2.42
2023-03-06T00:25:28.737Z,2.65
2023-03-06T00:27:55.401Z,1.90
2023-03-06T00:30:24.719Z,2.47
2023-03-06T00:32:52.777Z,2.13
2023-03-06T00:35:19.590Z,1.90
2023-03-06T00:37:46.403Z,2.25
2023-03-06T00:40:15.985Z,2.40
2023-03-06T00:42:42.754Z,2.80
2023-03-06T00:45:10.239Z,2.35
2023-03-06T00:47:37.126Z,2.47
2023-03-06T00:50:04.655Z,2.72
2023-03-06T00:52:31.444Z,2.20
2023-03-06T00:54:58.151Z,2.38
2023-03-06T00:57:25.159Z,2.20
2023-03-06T00:59:52.050Z,3.17
2023-03-06T01:02:18.801Z,2.42
2023-03-06T01:04:45.472Z,2.60
2023-03-06T01:07:12.349Z,2.90
2023-03-06T01:09:39.348Z,2.30
2023-03-06T01:12:06.241Z,2.92
2023-03-06T01:14:33.114Z,2.15
2023-03-06T01:16:59.774Z,2.63
2023-03-06T01:19:26.495Z,2.35
2023-03-06T01:21:53.383Z,2.60
2023-03-06T01:24:19.969Z,2.38
2023-03-06T01:26:46.643Z,2.30
2023-03-06T01:29:13.451Z,3.03
2023-03-06T01:31:40.181Z,2.17
2023-03-06T01:34:06.926Z,2.38
2023-03-06T01:36:33.913Z,2.03
2023-03-06T01:39:00.547Z,2.92
2023-03-06T01:41:27.251Z,2.42
2023-03-06T01:43:54.263Z,2.13
2023-03-06T01:46:30.592Z,2.20
2023-03-06T01:49:02.928Z,2.30
2023-03-06T01:51:35.324Z,2.03
2023-03-06T01:54:07.680Z,1.95
2023-03-06T01:56:35.081Z,2.22
2023-03-06T01:59:02.837Z,2.30
2023-03-06T02:01:31.149Z,2.40
2023-03-06T02:03:59.622Z,2.25
2023-03-06T02:06:27.157Z,2.10
2023-03-06T02:08:54.712Z,1.90
2023-03-06T02:11:25.751Z,2.78
2023-03-06T02:13:54.665Z,2.35
2023-03-06T02:16:26.675Z,1.90
2023-03-06T02:18:53.902Z,2.10
2023-03-06T02:21:25.417Z,1.83
2023-03-06T02:24:12.395Z,2.05
2023-03-06T02:26:41.988Z,1.88
2023-03-06T02:29:09.302Z,1.90
2023-03-06T02:31:36.189Z,2.10
2023-03-06T02:34:15.002Z,1.63
2023-03-06T02:36:46.075Z,1.80
2023-03-06T02:39:13.628Z,1.73
2023-03-06T02:41:41.123Z,1.73
2023-03-06T02:44:08.083Z,1.70
2023-03-06T02:46:34.768Z,1.60
2023-03-06T02:49:01.535Z,1.70
2023-03-06T02:51:28.589Z,1.70
2023-03-06T02:53:55.237Z,1.70
2023-03-06T02:56:22.458Z,1.55
2023-03-06T02:58:49.190Z,1.80
2023-03-06T03:01:16.041Z,1.40
2023-03-06T03:03:42.681Z,1.60
2023-03-06T03:06:09.723Z,1.60
2023-03-06T03:08:36.571Z,1.60
2023-03-06T03:11:04.591Z,1.77
2023-03-06T03:13:31.326Z,1.83
2023-03-06T03:16:00.261Z,1.80
2023-03-06T03:18:27.172Z,2.22
2023-03-06T03:20:54.892Z,1.80
2023-03-06T03:23:22.374Z,2.15
2023-03-06T03:25:49.276Z,2.05
2023-03-06T03:28:16.403Z,2.08
2023-03-06T03:30:43.191Z,2.13
2023-03-06T03:33:10.318Z,2.03
2023-03-06T03:35:37.319Z,2.20
2023-03-06T03:38:03.990Z,1.92
2023-03-06T03:40:30.787Z,2.00
2023-03-06T03:42:57.804Z,2.00
2023-03-06T03:45:24.471Z,2.08
2023-03-06T03:47:53.292Z,2.08
2023-03-06T03:50:20.316Z,1.90
2023-03-06T03:52:47.015Z,1.90
2023-03-06T03:55:13.702Z,1.83
2023-03-06T03:57:40.503Z,1.60
2023-03-06T04:00:08.161Z,1.70
2023-03-06T04:02:35.004Z,1.55
2023-03-06T04:05:01.957Z,1.70
2023-03-06T04:07:28.563Z,1.67
2023-03-06T04:09:55.255Z,1.83
2023-03-06T04:12:22.174Z,1.52
2023-03-06T04:14:48.814Z,1.50
2023-03-06T04:17:15.455Z,1.70
2023-03-06T04:19:42.196Z,1.55
2023-03-06T04:22:08.892Z,1.63
2023-03-06T04:24:35.680Z,1.60
2023-03-06T04:27:02.411Z,1.60
2023-03-06T04:29:29.089Z,1.63
2023-03-06T04:31:55.737Z,1.70
2023-03-06T04:34:22.461Z,1.50
2023-03-06T04:36:49.180Z,1.60
2023-03-06T04:39:15.822Z,1.50
2023-03-06T04:41:42.902Z,1.50
2023-03-06T04:44:10.080Z,1.50
2023-03-06T04:46:36.982Z,1.50
2023-03-06T04:49:04.525Z,1.70
2023-03-06T04:51:31.478Z,1.80
2023-03-06T04:53:58.542Z,1.70
2023-03-06T04:56:25.359Z,1.77
2023-03-06T04:58:52.090Z,1.52
2023-03-06T05:01:18.832Z,1.65
2023-03-06T05:03:45.852Z,1.60
2023-03-06T05:06:12.585Z,2.00
2023-03-06T05:08:39.330Z,1.65
2023-03-06T05:11:06.236Z,1.70
2023-03-06T05:13:33.294Z,1.70
2023-03-06T05:16:05.088Z,1.98
2023-03-06T05:18:33.021Z,1.90
2023-03-06T05:21:00.193Z,2.03
2023-03-06T05:23:31.372Z,2.00
2023-03-06T05:25:58.485Z,2.00
2023-03-06T05:28:26.098Z,2.00
2023-03-06T05:30:52.812Z,2.22
2023-03-06T05:33:19.774Z,2.10
2023-03-06T05:35:47.958Z,3.08
2023-03-06T05:38:15.814Z,2.80
2023-03-06T05:40:44.360Z,2.92
2023-03-06T05:43:12.416Z,2.67
2023-03-06T05:45:40.626Z,2.70
2023-03-06T05:48:08.263Z,2.72
2023-03-06T05:50:35.394Z,2.70
2023-03-06T05:53:02.125Z,3.00
2023-03-06T05:55:29.075Z,2.65
2023-03-06T05:57:55.704Z,2.78
2023-03-06T06:00:22.841Z,2.90
2023-03-06T06:02:49.668Z,2.70
2023-03-06T06:05:16.561Z,3.10
2023-03-06T06:07:43.253Z,3.08
2023-03-06T06:10:11.565Z,3.00
2023-03-06T06:12:38.338Z,2.88
2023-03-06T06:15:06.613Z,3.00
2023-03-06T06:17:33.588Z,2.85
2023-03-06T06:20:00.400Z,2.85
2023-03-06T06:22:27.040Z,3.15
2023-03-06T06:24:54.072Z,3.10
2023-03-06T06:27:20.784Z,2.60
2023-03-06T06:29:51.380Z,3.33
2023-03-06T06:34:44.815Z,3.00
2023-03-06T06:37:11.685Z,3.50
2023-03-06T06:39:38.476Z,3.58
2023-03-06T06:42:28.148Z,3.33
2023-03-06T06:44:52.475Z,3.30
2023-03-06T06:47:24.655Z,3.17
2023-03-06T06:49:54.108Z,3.30
2023-03-06T06:52:21.797Z,3.40
2023-03-06T06:54:48.691Z,3.60
2023-03-06T06:57:15.989Z,3.75
2023-03-06T06:59:42.835Z,3.40
2023-03-06T07:02:14.225Z,3.13
2023-03-06T07:04:56.146Z,2.60
2023-03-06T07:07:25.417Z,2.80
2023-03-06T07:09:53.281Z,2.65
2023-03-06T07:12:20.076Z,2.60
2023-03-06T07:14:47.035Z,2.65
2023-03-06T07:17:14.167Z,2.70
2023-03-06T07:19:40.936Z,2.67
2023-03-06T07:22:07.837Z,2.30
2023-03-06T07:24:34.991Z,2.45
2023-03-06T07:27:01.836Z,2.67
2023-03-06T07:29:28.530Z,3.10
2023-03-06T07:31:55.392Z,2.60
2023-03-06T07:34:22.500Z,2.65
2023-03-06T07:36:50.878Z,2.03
2023-03-06T07:39:18.146Z,2.10
2023-03-06T07:41:44.861Z,2.20
2023-03-06T07:44:11.571Z,2.28
2023-03-06T07:46:38.347Z,2.20
2023-03-06T07:49:05.106Z,2.63
2023-03-06T07:51:31.807Z,2.47
2023-03-06T07:53:58.455Z,2.70
2023-03-06T07:56:25.235Z,2.60
2023-03-06T07:58:51.861Z,2.28
2023-03-06T08:01:21.040Z,2.20
2023-03-06T08:03:50.112Z,2.30
2023-03-06T08:06:25.672Z,2.30
2023-03-06T08:08:54.297Z,2.20
2023-03-06T08:11:24.123Z,1.90
2023-03-06T08:13:52.987Z,2.30
2023-03-06T08:16:25.506Z,2.28
2023-03-06T08:18:52.514Z,2.30
2023-03-06T08:21:22.125Z,2.13
2023-03-06T08:23:48.883Z,2.00
2023-03-06T08:26:18.557Z,1.98
2023-03-06T08:28:45.640Z,2.00
2023-03-06T08:31:23.215Z,1.80
2023-03-06T08:33:50.023Z,2.00
2023-03-06T08:36:17.032Z,1.90
2023-03-06T08:38:43.731Z,1.90
2023-03-06T08:41:10.656Z,1.98
2023-03-06T08:43:37.456Z,2.20
2023-03-06T08:46:04.268Z,2.25
2023-03-06T08:48:31.140Z,2.13
2023-03-06T08:50:57.908Z,1.70
2023-03-06T08:53:40.499Z,2.00
2023-03-06T08:56:25.515Z,2.67
2023-03-06T08:58:53.355Z,1.67
2023-03-06T09:01:23.639Z,1.77
2023-03-06T09:03:51.175Z,1.60
2023-03-06T09:06:17.827Z,1.77
2023-03-06T09:08:44.769Z,1.65
2023-03-06T09:11:15.956Z,1.65
2023-03-06T09:13:43.550Z,1.60
2023-03-06T09:16:11.699Z,1.52
2023-03-06T09:18:38.660Z,1.83
2023-03-06T09:21:06.067Z,1.60
2023-03-06T09:23:32.854Z,2.00
2023-03-06T09:26:00.900Z,1.65
2023-03-06T09:28:27.934Z,1.60
2023-03-06T09:30:55.156Z,2.10
2023-03-06T09:33:22.533Z,1.52
2023-03-06T09:35:53.101Z,1.70
2023-03-06T09:38:22.063Z,1.75
2023-03-06T09:40:57.825Z,2.00
2023-03-06T09:43:30.426Z,1.52
2023-03-06T09:45:59.076Z,1.90
2023-03-06T09:48:41.714Z,1.88
2023-03-06T09:51:15.336Z,1.40
2023-03-06T09:54:16.071Z,1.60
2023-03-06T09:59:22.028Z,1.45
2023-03-06T10:04:51.971Z,1.52
2023-03-06T10:07:28.322Z,2.00
2023-03-06T10:10:02.893Z,1.50
2023-03-06T10:12:38.107Z,1.40
2023-03-06T10:15:20.620Z,1.50
2023-03-06T10:17:48.330Z,1.98
2023-03-06T10:20:17.314Z,1.40
2023-03-06T10:23:01.267Z,1.50
2023-03-06T10:25:36.264Z,1.30
2023-03-06T10:28:30.785Z,1.40
2023-03-06T10:31:11.691Z,1.30
2023-03-06T10:33:56.785Z,1.30
2023-03-06T10:36:27.320Z,1.30
2023-03-06T10:41:33.043Z,1.50
2023-03-06T10:43:59.672Z,1.50
2023-03-06T10:46:29.303Z,1.35
2023-03-06T10:49:01.435Z,1.30
2023-03-06T10:51:29.492Z,1.23
2023-03-06T10:53:59.594Z,1.30
2023-03-06T10:56:33.958Z,1.35
2023-03-06T10:59:25.224Z,1.35
2023-03-06T11:01:54.843Z,1.00
2023-03-06T11:04:34.753Z,1.27
2023-03-06T11:07:12.890Z,2.40
2023-03-06T11:09:40.133Z,1.30
2023-03-06T11:12:42.521Z,1.15
2023-03-06T11:15:17.393Z,1.33
2023-03-06T11:18:09.205Z,1.20
2023-03-06T11:20:53.152Z,1.20
2023-03-06T11:23:42.909Z,1.23
2023-03-06T11:26:15.522Z,1.60
2023-03-06T11:28:50.018Z,1.50
2023-03-06T11:31:20.917Z,1.17
2023-03-06T11:34:14.543Z,1.52
2023-03-06T11:36:47.505Z,1.40
2023-03-06T11:39:56.321Z,1.38
2023-03-06T11:42:35.929Z,2.17
2023-03-06T11:45:14.902Z,1.65
2023-03-06T11:47:50.426Z,1.65
2023-03-06T11:50:31.285Z,1.70
2023-03-06T11:53:01.669Z,1.50
2023-03-06T11:55:55.639Z,1.40
2023-03-06T11:58:40.679Z,1.80
2023-03-06T12:01:22.363Z,1.65
2023-03-06T12:04:21.099Z,1.40
2023-03-06T12:06:56.952Z,1.40
2023-03-06T12:09:38.552Z,1.30
2023-03-06T12:12:20.696Z,1.45
2023-03-06T12:15:22.768Z,1.40
2023-03-06T12:18:17.159Z,1.40
2023-03-06T12:20:58.685Z,1.45
2023-03-06T12:23:34.215Z,1.40
2023-03-06T12:26:06.692Z,1.70
2023-03-06T12:29:01.394Z,1.50
2023-03-06T12:32:06.384Z,1.90
2023-03-06T12:35:16.623Z,1.50
2023-03-06T12:38:06.067Z,1.80
2023-03-06T12:40:47.957Z,1.77
2023-03-06T12:43:51.973Z,2.00
2023-03-06T12:46:26.958Z,1.60
2023-03-06T12:49:08.902Z,1.77
2023-03-06T12:51:36.589Z,1.60
2023-03-06T12:54:03.780Z,1.63
2023-03-06T12:56:33.142Z,1.60
2023-03-06T12:59:04.005Z,1.50
2023-03-06T13:02:02.426Z,1.63
2023-03-06T13:04:48.590Z,1.73
2023-03-06T13:07:23.017Z,1.50
2023-03-06T13:10:06.526Z,1.73
2023-03-06T13:12:50.677Z,1.75
2023-03-06T13:15:40.702Z,1.38
2023-03-06T13:18:22.584Z,1.75
2023-03-06T13:20:53.914Z,1.70
2023-03-06T13:23:29.589Z,1.33
2023-03-06T13:26:31.518Z,1.50
2023-03-06T13:28:58.720Z,2.35
2023-03-06T13:31:36.581Z,1.40
2023-03-06T13:34:05.403Z,1.55
2023-03-06T13:36:39.480Z,1.50
2023-03-06T13:39:13.035Z,1.45
2023-03-06T13:41:57.099Z,1.63
2023-03-06T13:44:23.775Z,1.30
2023-03-06T13:47:05.135Z,1.80
2023-03-06T13:49:33.249Z,1.65
2023-03-06T13:52:02.825Z,1.73
2023-03-06T13:54:49.787Z,1.80
2023-03-06T13:57:25.561Z,2.00
2023-03-06T14:00:10.325Z,2.00
2023-03-06T14:02:54.899Z,2.40
2023-03-06T14:05:22.523Z,1.88
2023-03-06T14:08:29.741Z,2.40
2023-03-06T14:11:04.060Z,2.03
2023-03-06T14:13:47.218Z,2.10
2023-03-06T14:16:23.040Z,1.92
2023-03-06T14:18:52.083Z,2.00
2023-03-06T14:21:37.476Z,1.90
2023-03-06T14:24:05.575Z,2.00
2023-03-06T14:26:44.931Z,1.60
2023-03-06T14:29:26.529Z,1.70
2023-03-06T14:31:56.369Z,1.50
2023-03-06T14:34:24.998Z,1.80
2023-03-06T14:36:53.929Z,1.40
2023-03-06T14:39:21.036Z,1.98
2023-03-06T14:41:47.897Z,1.52
2023-03-06T14:44:23.282Z,1.40
2023-03-06T14:46:52.836Z,1.75
2023-03-06T14:49:22.087Z,1.50
2023-03-06T14:51:54.069Z,1.40
2023-03-06T14:54:47.996Z,1.35
2023-03-06T14:57:20.032Z,1.58
2023-03-06T14:59:59.395Z,2.17
2023-03-06T15:02:33.035Z,3.00
2023-03-06T15:05:11.303Z,2.50
2023-03-06T15:07:38.410Z,1.80
2023-03-06T15:10:10.470Z,2.03
2023-03-06T15:12:38.927Z,1.90
2023-03-06T15:15:10.464Z,1.77
2023-03-06T15:17:45.135Z,1.80
2023-03-06T15:20:38.541Z,1.80
2023-03-06T15:23:16.611Z,1.60
2023-03-06T15:25:56.582Z,1.92
2023-03-06T15:28:37.223Z,1.70
2023-03-06T15:31:05.505Z,1.80
2023-03-06T15:33:32.198Z,1.70
2023-03-06T15:36:17.817Z,2.00
2023-03-06T15:38:46.670Z,1.40
2023-03-06T15:41:21.677Z,1.92
2023-03-06T15:43:48.289Z,1.50
2023-03-06T15:46:15.111Z,1.90
2023-03-06T15:48:56.054Z,2.08
2023-03-06T15:51:22.889Z,2.00
2023-03-06T15:53:50.277Z,1.80
2023-03-06T15:56:28.795Z,1.50
2023-03-06T15:59:00.301Z,1.90
2023-03-06T16:01:27.101Z,2.00
2023-03-06T16:03:53.835Z,1.80
2023-03-06T16:06:24.695Z,2.00
2023-03-06T16:08:52.190Z,2.22
2023-03-06T16:11:35.422Z,2.40
2023-03-06T16:14:18.911Z,2.72
2023-03-06T16:16:45.991Z,2.00
2023-03-06T16:19:25.978Z,2.00
2023-03-06T16:21:54.877Z,1.90
2023-03-06T16:24:21.970Z,2.00
2023-03-06T16:26:51.138Z,2.00
2023-03-06T16:29:19.949Z,1.70
2023-03-06T16:31:47.058Z,1.95
2023-03-06T16:34:14.476Z,2.30
2023-03-06T16:36:41.968Z,3.38
2023-03-06T16:39:20.635Z,3.10
2023-03-06T16:41:49.460Z,3.60
2023-03-06T16:44:16.489Z,3.47
2023-03-06T16:46:45.926Z,3.72
2023-03-06T16:49:30.995Z,3.78
2023-03-06T16:51:57.914Z,3.65
2023-03-06T16:54:26.208Z,3.85
2023-03-06T16:56:53.106Z,4.00
2023-03-06T16:59:19.819Z,3.40
2023-03-06T17:01:46.660Z,3.60
2023-03-06T17:04:13.720Z,3.97
2023-03-06T17:06:41.777Z,4.40
2023-03-06T17:09:10.764Z,4.07
2023-03-06T17:11:42.860Z,3.90
2023-03-06T17:14:09.666Z,4.55
2023-03-06T17:16:40.223Z,4.75
2023-03-06T17:21:35.473Z,4.53
2023-03-06T17:24:03.850Z,4.97
2023-03-06T17:26:30.763Z,5.28
2023-03-06T17:28:57.771Z,5.28
2023-03-06T17:31:27.245Z,5.43
2023-03-06T17:34:01.867Z,5.70
2023-03-06T17:36:30.403Z,5.22
2023-03-06T17:38:58.899Z,5.50
2023-03-06T17:41:26.020Z,5.82
2023-03-06T17:43:55.028Z,6.70
2023-03-06T17:46:22.065Z,5.57
2023-03-06T17:48:48.894Z,6.35
2023-03-06T17:51:15.667Z,6.70
2023-03-06T17:53:42.371Z,6.90
2023-03-06T17:56:12.654Z,7.80
2023-03-06T17:58:39.403Z,7.57
2023-03-06T18:01:21.199Z,8.35
2023-03-06T18:03:50.029Z,8.15
2023-03-06T18:06:18.035Z,7.50
2023-03-06T18:08:46.093Z,8.30
2023-03-06T18:11:13.029Z,8.50
2023-03-06T18:13:42.885Z,8.63
2023-03-06T18:16:12.970Z,9.25
2023-03-06T18:18:40.411Z,9.10
2023-03-06T18:21:10.169Z,9.98
2023-03-06T18:23:38.033Z,9.68
2023-03-06T18:26:34.342Z,9.43
2023-03-06T18:29:04.629Z,9.05
2023-03-06T18:31:39.966Z,9.85
2023-03-06T18:34:10.721Z,9.25
2023-03-06T18:36:38.479Z,10.00
2023-03-06T18:39:09.740Z,9.80
2023-03-06T18:41:36.876Z,10.55
2023-03-06T18:44:04.491Z,9.52
2023-03-06T18:46:36.861Z,10.73
2023-03-06T18:49:04.554Z,9.65
2023-03-06T18:51:31.880Z,10.82
2023-03-06T18:54:03.457Z,9.32
2023-03-06T18:56:30.658Z,10.23
2023-03-06T18:59:01.985Z,10.43
2023-03-06T19:01:30.843Z,9.70
2023-03-06T19:04:02.508Z,8.73
2023-03-06T19:06:30.028Z,9.23
2023-03-06T19:09:01.868Z,9.43
2023-03-06T19:11:30.635Z,8.90
2023-03-06T19:13:57.799Z,8.95
2023-03-06T19:16:27.117Z,9.07
2023-03-06T19:18:55.857Z,8.00
2023-03-06T19:21:24.206Z,10.32
2023-03-06T19:23:51.368Z,10.75
2023-03-06T19:26:21.359Z,9.75
2023-03-06T19:28:49.278Z,9.88
2023-03-06T19:31:19.607Z,9.73
2023-03-06T19:33:47.751Z,9.98
2023-03-06T19:36:16.613Z,10.68
2023-03-06T19:38:43.643Z,11.27
2023-03-06T19:41:13.556Z,11.77
2023-03-06T19:43:41.589Z,12.70
2023-03-06T19:46:15.299Z,12.35
2023-03-06T19:48:42.739Z,12.25
2023-03-06T19:51:10.727Z,12.70
2023-03-06T19:53:39.674Z,12.95
2023-03-06T19:56:09.257Z,13.80
2023-03-06T19:58:36.682Z,14.40
2023-03-06T20:01:15.298Z,13.60
2023-03-06T20:03:42.707Z,14.05
2023-03-06T20:06:18.754Z,12.68
2023-03-06T20:08:46.959Z,13.18
2023-03-06T20:11:18.390Z,14.32
2023-03-06T20:13:47.815Z,14.13
2023-03-06T20:16:15.701Z,13.93
2023-03-06T20:18:42.621Z,15.10
2023-03-06T20:21:09.547Z,14.80
2023-03-06T20:23:36.443Z,14.77
2023-03-06T20:26:09.762Z,15.25
2023-03-06T20:28:38.677Z,16.90
2023-03-06T20:31:11.281Z,15.30
2023-03-06T20:33:38.113Z,15.25
2023-03-06T20:36:11.198Z,15.95
2023-03-06T20:38:39.035Z,16.55
2023-03-06T20:41:05.679Z,16.48
2023-03-06T20:43:32.473Z,17.08
2023-03-06T20:46:02.732Z,16.63
2023-03-06T20:48:30.018Z,15.75
2023-03-06T20:51:23.739Z,15.27
2023-03-06T20:53:53.197Z,15.98
2023-03-06T20:56:22.074Z,16.42
2023-03-06T20:58:48.862Z,16.17
2023-03-06T21:01:24.308Z,16.23
2023-03-06T21:03:52.126Z,17.27
2023-03-06T21:06:19.885Z,15.93
2023-03-06T21:08:47.275Z,16.45
2023-03-06T21:11:14.674Z,17.13
2023-03-06T21:13:41.950Z,16.17
2023-03-06T21:16:11.723Z,16.02
2023-03-06T21:18:38.503Z,15.57
2023-03-06T21:21:10.746Z,16.00
2023-03-06T21:23:38.297Z,16.73
2023-03-06T21:26:05.315Z,15.10
2023-03-06T21:28:32.658Z,14.55
2023-03-06T21:31:02.912Z,14.93
2023-03-06T21:33:29.800Z,13.95
2023-03-06T21:35:56.602Z,15.57
2023-03-06T21:38:23.398Z,15.30
2023-03-06T21:40:50.132Z,13.82
2023-03-06T21:43:17.657Z,13.40
2023-03-06T21:45:52.740Z,13.63
2023-03-06T21:48:19.660Z,13.82
2023-03-06T21:50:46.388Z,15.07
2023-03-06T21:53:13.144Z,14.23
2023-03-06T21:55:40.876Z,14.00
2023-03-06T21:58:08.727Z,15.45
2023-03-06T22:00:36.692Z,14.55
2023-03-06T22:03:04.735Z,13.73
2023-03-06T22:05:34.631Z,14.98
2023-03-06T22:08:01.497Z,14.43
2023-03-06T22:10:28.257Z,14.40
2023-03-06T22:12:55.186Z,14.63
2023-03-06T22:15:22.210Z,14.55
2023-03-06T22:17:49.343Z,15.07
2023-03-06T22:20:16.509Z,14.35
2023-03-06T22:22:44.012Z,15.32
2023-03-06T22:25:12.034Z,15.65
2023-03-06T22:27:39.036Z,14.43
2023-03-06T22:30:06.654Z,15.10
2023-03-06T22:32:33.566Z,14.82
2023-03-06T22:35:00.403Z,15.18
2023-03-06T22:37:27.357Z,14.60
2023-03-06T22:39:54.429Z,14.75
2023-03-06T22:42:21.176Z,15.35
2023-03-06T22:44:47.962Z,15.07
2023-03-06T22:47:14.805Z,14.15
2023-03-06T22:49:41.881Z,14.48
2023-03-06T22:52:09.970Z,12.63
2023-03-06T22:54:36.749Z,13.85
2023-03-06T22:57:03.456Z,13.10
2023-03-06T22:59:30.497Z,13.45
2023-03-06T23:01:57.171Z,13.70
2023-03-06T23:04:23.982Z,13.13
2023-03-06T23:06:51.236Z,12.82
2023-03-06T23:09:22.423Z,13.27
2023-03-06T23:11:50.314Z,12.85
2023-03-06T23:14:18.845Z,12.15
2023-03-06T23:16:45.645Z,11.77
2023-03-06T23:19:12.512Z,11.75
2023-03-06T23:21:39.466Z,10.98
2023-03-06T23:24:07.142Z,11.00
2023-03-06T23:26:37.139Z,9.50
2023-03-06T23:29:04.487Z,10.75
2023-03-06T23:31:31.668Z,10.68
2023-03-06T23:34:01.095Z,9.90
2023-03-06T23:36:29.150Z,9.57
2023-03-06T23:38:56.255Z,10.07
2023-03-06T23:41:23.805Z,10.18
2023-03-06T23:43:52.875Z,9.48
2023-03-06T23:46:20.894Z,9.88
2023-03-06T23:48:47.718Z,9.98
2023-03-06T23:51:17.988Z,9.48
2023-03-06T23:53:45.974Z,8.65
2023-03-06T23:56:13.641Z,7.80
2023-03-06T23:58:40.880Z,7.22
